• Join FlightAware (Why Join?)
  • Login
  • US Flag 
08:31AM EDT


 

Airport Tracker/Info


-or-


 

Live Flight TrackerFlight Track Log ✈ ASQ2513 ✈ 08-May-2013 ✈ KDFW - KHOU

Flight Track Log - Related Links

Times and Time Zones

All times are in EDT time to prevent confusion due to time zone crossing. See the ASQ2513 flight status page for this flight to view local times or setup timezone preferences in your user account.

Time Position Orientation Groundspeed Altitude Reporting Facility
EDT Latitude Longitude Course Direction KTS MPH feet Rate Location/Type
01:59PM 32.8833 -97.0333 180° South 190 219 1,300  Level Dallas / Fort Worth TRACON
02:00PM 32.8000 -97.0333 180° South 255 293 4,200 2,220 Climbing Dallas / Fort Worth TRACON
02:02PM 32.6761 -97.0161 173° South 254 292 8,700 2,280 Climbing Fort Worth Center
02:03PM 32.6072 -96.9817 157° South 273 314 10,600 1,500 Climbing Fort Worth Center
02:04PM 32.5069 -96.9675 173° South 310 357 11,800 1,380 Climbing Fort Worth Center
02:05PM 32.4192 -96.9581 175° South 346 398 13,400 1,680 Climbing Fort Worth Center
02:06PM 32.3106 -96.9414 173° South 366 421 15,200 1,800 Climbing Fort Worth Center
02:07PM 32.2083 -96.9297 174° South 365 420 17,100 1,740 Climbing Fort Worth Center
02:08PM 32.1039 -96.9081 170° South 371 427 18,700 1,320 Climbing Fort Worth Center
02:09PM 32.0097 -96.8917 172° South 371 427 19,800 1,020 Climbing Fort Worth Center
02:10PM 31.8989 -96.8725 172° South 390 449 20,800 840 Climbing Fort Worth Center
02:12PM 31.6903 -96.8344 171° South 416 479 22,300 780 Climbing Houston Center
02:13PM 31.5706 -96.8161 173° South 426 490 23,100 720 Climbing Houston Center
02:14PM 31.4272 -96.7928 172° South 437 503 23,900 720 Climbing Houston Center
02:15PM 31.3017 -96.7717 172° South 445 512 24,600 480 Climbing Houston Center
02:16PM 31.1772 -96.7514 172° South 444 511 25,000 180 Climbing Houston Center
02:17PM 31.0494 -96.7306 172° South 452 520 25,000 -360 Level Houston Center
02:18PM 30.9219 -96.7117 173° South 446 513 24,300 -540 Descending Houston Center
02:19PM 30.8083 -96.6939 172° South 422 486 24,000 -420 Descending Houston Center
02:20PM 30.6914 -96.6769 173° South 416 479 23,500 -1,200 Descending Houston Center
02:21PM 30.5806 -96.6461 167° South 411 473 21,600 -1,800 Descending Houston Center
02:22PM 30.4972 -96.5536 136° Southeast 412 474 19,800 -2,100 Descending Houston Center
02:23PM 30.3975 -96.4336 134° Southeast 442 509 17,300 -2,580 Descending Houston Center
02:24PM 30.3144 -96.3356 134° Southeast 430 495 14,500 -2,820 Descending Houston Center
02:25PM 30.2758 -96.2897 134° Southeast 387 445 13,100 -2,520 Descending Houston Center
02:25PM 30.2403 -96.2464 134° Southeast 394 453 11,900 -1,860 Descending Houston Center
02:26PM 30.1906 -96.2003 141° Southeast 370 426 11,000 -900 Descending Houston Center
02:26PM 30.1553 -96.1786 152° Southeast 371 427 11,000  Level Houston Center
02:27PM 30.0958 -96.1481 156° South 359 413 11,000 -120 Level Houston Center
02:27PM 30.0647 -96.1303 154° Southeast 366 421 10,900 -600 Descending Houston Center
02:28PM 30.0125 -96.0803 140° Southeast 364 419 10,400 -720 Descending Houston Center
02:28PM 29.9928 -96.0547 132° Southeast 351 404 10,200 -420 Descending Houston Center
02:29PM 29.9464 -95.9964 133° Southeast 343 395 10,000 -240 Descending Houston Center
02:29PM 29.9186 -95.9597 131° Southeast 335 386 10,000 -420 Level Houston Center
02:30PM 29.8897 -95.9233 132° Southeast 287 330 9,600 -1,020 Descending Houston Center
02:30PM 29.8650 -95.8925 133° Southeast 291 335 9,000 -840 Descending Houston Center
02:31PM 29.8378 -95.8569 131° Southeast 282 325 8,800 -720 Descending Houston Center
02:31PM 29.8139 -95.8264 132° Southeast 279 321 8,300 -1,080 Descending Houston Center
02:32PM 29.7928 -95.7997 132° Southeast 242 278 7,800 -1,440 Descending Houston Center
02:33PM 29.7689 -95.7700 133° Southeast 244 281 6,800 -1,680 Descending Houston Center
02:33PM 29.7478 -95.7422 131° Southeast 226 260 6,100 -780 Descending Houston Center
02:34PM 29.7283 -95.7167 131° Southeast 225 259 6,000 -120 Descending Houston Center
02:34PM 29.7075 -95.6917 134° Southeast 218 251 6,000  Level Houston Center
02:35PM 29.6892 -95.6653 129° Southeast 216 249 6,000  Level Houston Center
02:35PM 29.6625 -95.6319 133° Southeast 218 251 6,000 -600 Level Houston Center
02:36PM 29.6539 -95.5958 105° East 227 261 5,400 -1,560 Descending Houston Center
02:36PM 29.6667 -95.5619 67° East 247 284 4,400 -1,860 Descending Houston Center
02:37PM 29.6806 -95.5258 66° East 237 273 3,500 -1,800 Descending Houston Center
02:37PM 29.6919 -95.4939 68° East 223 257 2,600 -1,500 Descending Houston Center
02:38PM 29.7053 -95.4606 65° Northeast 229 264 2,000 -600 Descending Houston Center
02:38PM 29.7272 -95.4417 37° Northeast 196 226 2,000  Level Houston Center
02:39PM 29.7486 -95.4244 35° Northeast 207 238 2,000 60 Level Houston Center
02:39PM 29.7483 -95.3981 91° East 162 186 2,100  Climbing Houston Center
02:40PM 29.7344 -95.3814 134° Southeast 180 207 2,000 -240 Descending Houston Center
02:40PM 29.7158 -95.3636 140° Southeast 163 188 1,900 -420 Descending Houston Center
02:41PM 29.7028 -95.3475 133° Southeast 164 189 1,600 -720 Descending Houston Center
02:41PM 29.6872 -95.3286 133° Southeast 146 168 1,200 -840 Descending Houston Center
02:42PM 29.6592 -95.2958 135° Southeast 136 157 500 -660 Descending Houston Center
02:43PM 29.6414 -95.2742 133° Southeast 144 166 100 -600 Descending Houston Center
02:45PM 29.6333 -95.2667 North  Level FlightAware Approximate